Cielo Di Vaiano — D5AQ2 — position and weather

sailwx.info

Track history (hours):
 
Tides and Currents Weather Stations Pressure Air Temp Water Temp Dewpoint Dewpoint Depression Visibility Wind Speed Wind Dir Waves Ship Positions

Cielo Di Vaiano

Last reported at 2014-Jul-22 12:29 UTC. Time now 2014-Jul-31 07:33 UTC.
Position N 52°02' W 128°43'.
Warning: this ship's position is 8 days out of date.

Length 183 m; draft 11.3 m.

Type: Cargo ship. MMSI: 636015421.

Date/timePositionNaut miles runAvg speedWind from/ knotsBaromVisibWave heightAir tempDewpointWater temp
2014-Jul-22 12:29N 52°02' W 128°43'4214.2
2014-Jul-22 09:29N 51°20' W 128°30'1411.5
2014-Jul-22 08:15N 51°08' W 128°19'1014.9
2014-Jul-22 07:33N 51°05' W 128°03'1211.9
2014-Jul-22 06:33N 50°60' W 127°47'1 1.2
2014-Jul-22 05:33N 50°59' W 127°48'3 2.7
2014-Jul-22 04:33N 51°01' W 127°52'8 7.3
2014-Jul-22 03:31N 51°01' W 128°04'  
2014-Jul-19 14:32N 39°14' W 124°41'1212.3
2014-Jul-19 13:33N 39°02' W 124°36'1312.5
2014-Jul-19 12:32N 38°50' W 124°31'1212.3
2014-Jul-19 11:33N 38°39' W 124°27'1211.9
2014-Jul-19 10:33N 38°27' W 124°22'1212.0
2014-Jul-19 09:33N 38°16' W 124°17'1211.6
2014-Jul-19 08:33N 38°05' W 124°13'1211.9
2014-Jul-19 07:33N 37°54' W 124°08'1312.6
2014-Jul-19 06:33N 37°42' W 124°03'1312.6
2014-Jul-19 05:33N 37°30' W 123°59'1312.4
2014-Jul-19 04:33N 37°18' W 123°54'1212.5
2014-Jul-19 03:33N 37°06' W 123°49'1212.4
2014-Jul-19 02:33N 36°54' W 123°44'1312.5
2014-Jul-19 01:32N 36°42' W 123°39'1412.5
2014-Jul-19 00:25N 36°28' W 123°34'1012.0
2014-Jul-18 23:33N 36°19' W 123°30'1211.9
2014-Jul-18 22:33N 36°07' W 123°26'1211.7
2014-Jul-18 21:33N 35°56' W 123°21'1111.3
2014-Jul-18 20:33N 35°45' W 123°17'1211.6
2014-Jul-18 19:33N 35°35' W 123°10'1212.1
2014-Jul-18 18:33N 35°25' W 123°01'1312.5
2014-Jul-18 17:33N 35°15' W 122°52'1312.8
2014-Jul-18 16:33N 35°05' W 122°42'1312.8
2014-Jul-18 15:33N 34°55' W 122°33'1312.6
2014-Jul-18 14:32N 34°45' W 122°23'1212.2
2014-Jul-18 13:33N 34°36' W 122°15'1212.1
2014-Jul-18 12:33N 34°26' W 122°06'1312.0
2014-Jul-18 11:30N 34°16' W 121°56'1412.2
2014-Jul-18 10:21N 34°05' W 121°46'1012.5
2014-Jul-18 09:33N 33°57' W 121°39'1712.6
2014-Jul-18 08:13N 33°44' W 121°26'812.5
2014-Jul-18 07:33N 33°37' W 121°20'9212.4
2014-Jul-18 00:06N 32°24' W 120°13'912.4
2014-Jul-17 23:23N 32°17' W 120°07'1312.3
2014-Jul-17 22:21N 32°06' W 119°58'1012.7
2014-Jul-17 21:33N 31°58' W 119°50'1512.4
2014-Jul-17 20:22N 31°47' W 119°40'1012.4
2014-Jul-17 19:33N 31°39' W 119°33'1512.6
2014-Jul-17 18:23N 31°27' W 119°22'2912.7
2014-Jul-17 16:05N 31°04' W 119°01'1313.0
2014-Jul-17 15:06N 30°54' W 118°52'  
Track history (hours):
 
Tides and Currents Weather Stations Pressure Air Temp Water Temp Dewpoint Dewpoint Depression Visibility Wind Speed Wind Dir Waves Ship Positions

Cielo Di Vaiano

Last reported at 2014-Jul-22 12:29 UTC. Time now 2014-Jul-31 07:33 UTC.
Position N 52°02' W 128°43'.
Warning: this ship's position is 8 days out of date.

Length 183 m; draft 11.3 m.

Type: Cargo ship. MMSI: 636015421.

Date/timePositionNaut miles runAvg speedWind from/ knotsBaromVisibWave heightAir tempDewpointWater temp
2014-Jul-22 12:29N 52°02' W 128°43'4214.2
2014-Jul-22 09:29N 51°20' W 128°30'1411.5
2014-Jul-22 08:15N 51°08' W 128°19'1014.9
2014-Jul-22 07:33N 51°05' W 128°03'1211.9
2014-Jul-22 06:33N 50°60' W 127°47'1 1.2
2014-Jul-22 05:33N 50°59' W 127°48'3 2.7
2014-Jul-22 04:33N 51°01' W 127°52'8 7.3
2014-Jul-22 03:31N 51°01' W 128°04'  
2014-Jul-19 14:32N 39°14' W 124°41'1212.3
2014-Jul-19 13:33N 39°02' W 124°36'1312.5
2014-Jul-19 12:32N 38°50' W 124°31'1212.3
2014-Jul-19 11:33N 38°39' W 124°27'1211.9
2014-Jul-19 10:33N 38°27' W 124°22'1212.0
2014-Jul-19 09:33N 38°16' W 124°17'1211.6
2014-Jul-19 08:33N 38°05' W 124°13'1211.9
2014-Jul-19 07:33N 37°54' W 124°08'1312.6
2014-Jul-19 06:33N 37°42' W 124°03'1312.6
2014-Jul-19 05:33N 37°30' W 123°59'1312.4
2014-Jul-19 04:33N 37°18' W 123°54'1212.5
2014-Jul-19 03:33N 37°06' W 123°49'1212.4
2014-Jul-19 02:33N 36°54' W 123°44'1312.5
2014-Jul-19 01:32N 36°42' W 123°39'1412.5
2014-Jul-19 00:25N 36°28' W 123°34'1012.0
2014-Jul-18 23:33N 36°19' W 123°30'1211.9
2014-Jul-18 22:33N 36°07' W 123°26'1211.7
2014-Jul-18 21:33N 35°56' W 123°21'1111.3
2014-Jul-18 20:33N 35°45' W 123°17'1211.6
2014-Jul-18 19:33N 35°35' W 123°10'1212.1
2014-Jul-18 18:33N 35°25' W 123°01'1312.5
2014-Jul-18 17:33N 35°15' W 122°52'1312.8
2014-Jul-18 16:33N 35°05' W 122°42'1312.8
2014-Jul-18 15:33N 34°55' W 122°33'1312.6
2014-Jul-18 14:32N 34°45' W 122°23'1212.2
2014-Jul-18 13:33N 34°36' W 122°15'1212.1
2014-Jul-18 12:33N 34°26' W 122°06'1312.0
2014-Jul-18 11:30N 34°16' W 121°56'1412.2
2014-Jul-18 10:21N 34°05' W 121°46'1012.5
2014-Jul-18 09:33N 33°57' W 121°39'1712.6
2014-Jul-18 08:13N 33°44' W 121°26'812.5
2014-Jul-18 07:33N 33°37' W 121°20'9212.4
2014-Jul-18 00:06N 32°24' W 120°13'912.4
2014-Jul-17 23:23N 32°17' W 120°07'1312.3
2014-Jul-17 22:21N 32°06' W 119°58'1012.7
2014-Jul-17 21:33N 31°58' W 119°50'1512.4
2014-Jul-17 20:22N 31°47' W 119°40'1012.4
2014-Jul-17 19:33N 31°39' W 119°33'1512.6
2014-Jul-17 18:23N 31°27' W 119°22'2912.7
2014-Jul-17 16:05N 31°04' W 119°01'1313.0
2014-Jul-17 15:06N 30°54' W 118°52'  

Dump ship's entire track history